createdAt,value
2022-12-23T00:00:43.776Z,100234.50
2022-12-23T00:03:11.179Z,100238.91
2022-12-23T00:05:39.348Z,100231.09
2022-12-23T00:08:07.782Z,100230.25
2022-12-23T00:10:39.535Z,100222.38
2022-12-23T00:13:25.992Z,100230.31
2022-12-23T00:16:04.393Z,100234.66
2022-12-23T00:18:31.580Z,100231.19
2022-12-23T00:21:06.644Z,100232.09
2022-12-23T00:23:37.357Z,100227.72
2022-12-23T00:26:05.611Z,100222.53
2022-12-23T00:28:33.141Z,100234.75
2022-12-23T00:31:05.901Z,100229.47
2022-12-23T00:33:44.666Z,100222.47
2022-12-23T00:36:27.723Z,100233.00
2022-12-23T00:39:14.013Z,100233.87
2022-12-23T00:41:59.818Z,100242.59
2022-12-23T00:44:26.895Z,100246.09
2022-12-23T00:46:53.825Z,100239.09
2022-12-23T00:49:40.328Z,100242.59
2022-12-23T00:52:09.463Z,100242.59
2022-12-23T00:54:36.635Z,100245.22
2022-12-23T00:57:03.926Z,100235.62
2022-12-23T00:59:31.525Z,100229.50
2022-12-23T01:02:17.429Z,100240.81
2022-12-23T01:05:03.379Z,100243.44
2022-12-23T01:07:30.322Z,100233.84
2022-12-23T01:09:57.192Z,100232.09
2022-12-23T01:12:24.108Z,100230.34
2022-12-23T01:14:51.261Z,100231.22
2022-12-23T01:17:18.762Z,100233.87
2022-12-23T01:19:46.718Z,100223.41
2022-12-23T01:22:13.697Z,100226.87
2022-12-23T01:24:40.687Z,100225.97
2022-12-23T01:27:07.598Z,100211.97
2022-12-23T01:29:37.586Z,100208.56
2022-12-23T01:32:04.819Z,100220.78
2022-12-23T01:34:36.671Z,100212.91
2022-12-23T01:37:04.948Z,100205.09
2022-12-23T01:39:32.029Z,100201.56
2022-12-23T01:42:17.606Z,100197.19
2022-12-23T01:45:21.630Z,100187.59
2022-12-23T01:47:48.423Z,100194.53
2022-12-23T01:50:35.441Z,100188.41
2022-12-23T01:53:12.238Z,100190.16
2022-12-23T01:55:52.155Z,100196.25
2022-12-23T01:58:30.525Z,100189.25
2022-12-23T02:01:17.707Z,100196.28
2022-12-23T02:03:45.959Z,100192.75
2022-12-23T02:06:34.181Z,100195.44
2022-12-23T02:09:19.518Z,100186.72
2022-12-23T02:12:07.955Z,100163.13
2022-12-23T02:15:12.575Z,100164.91
2022-12-23T02:17:58.068Z,100158.78
2022-12-23T02:20:39.348Z,100164.06
2022-12-23T02:23:18.246Z,100165.78
2022-12-23T02:25:54.411Z,100168.38
2022-12-23T02:28:43.934Z,100165.81
2022-12-23T02:31:25.062Z,100177.16
2022-12-23T02:34:16.633Z,100178.03
2022-12-23T02:37:34.137Z,100173.66
2022-12-23T02:40:19.447Z,100171.03
2022-12-23T02:43:09.078Z,100177.19
2022-12-23T02:45:44.348Z,100164.91
2022-12-23T02:48:20.196Z,100164.03
2022-12-23T02:50:49.032Z,100164.03
2022-12-23T02:53:29.621Z,100155.31
2022-12-23T02:55:59.282Z,100145.75
2022-12-23T02:58:37.723Z,100149.22
2022-12-23T03:01:07.217Z,100151.81
2022-12-23T03:03:35.729Z,100151.81
2022-12-23T03:06:13.475Z,100147.47
2022-12-23T03:08:43.659Z,100152.69
2022-12-23T03:11:18.318Z,100141.31
2022-12-23T03:14:13.120Z,100136.09
2022-12-23T03:17:09.350Z,100141.31
2022-12-23T03:19:54.610Z,100149.94
2022-12-23T03:22:36.232Z,100149.97
2022-12-23T03:25:14.121Z,100139.50
2022-12-23T03:27:49.838Z,100141.25
2022-12-23T03:30:19.710Z,100139.47
2022-12-23T03:32:49.471Z,100143.03
2022-12-23T03:35:20.152Z,100137.78
2022-12-23T03:37:50.541Z,100136.91
2022-12-23T03:40:30.267Z,100144.78
2022-12-23T03:43:13.975Z,100117.66
2022-12-23T03:45:47.978Z,100136.91
2022-12-23T03:48:35.754Z,100135.22
2022-12-23T03:51:11.711Z,100135.22
2022-12-23T03:53:46.730Z,100143.94
2022-12-23T03:56:23.097Z,100145.72
2022-12-23T03:58:59.375Z,100137.84
2022-12-23T04:02:13.802Z,100133.50
2022-12-23T04:04:55.778Z,100132.66
2022-12-23T04:07:27.679Z,100129.13
2022-12-23T04:09:55.696Z,100121.25
2022-12-23T04:12:25.145Z,100123.91
2022-12-23T04:14:52.042Z,100112.50
2022-12-23T04:17:19.851Z,100120.44
2022-12-23T04:19:50.866Z,100123.06
2022-12-23T04:22:17.694Z,100115.16
2022-12-23T04:24:44.646Z,100112.56
2022-12-23T04:27:15.509Z,100114.34
2022-12-23T04:29:43.834Z,100112.59
2022-12-23T04:32:10.924Z,100120.44
2022-12-23T04:34:37.812Z,100117.84
2022-12-23T04:37:04.664Z,100123.94
2022-12-23T04:39:31.572Z,100123.09
2022-12-23T04:41:58.487Z,100114.38
2022-12-23T04:44:25.329Z,100111.81
2022-12-23T04:46:52.353Z,100117.06
2022-12-23T04:49:19.528Z,100105.69
2022-12-23T04:51:46.692Z,100130.25
2022-12-23T04:54:13.691Z,100132.91
2022-12-23T04:56:40.587Z,100132.91
2022-12-23T04:59:07.450Z,100127.66
2022-12-23T05:01:34.455Z,100129.41
2022-12-23T05:04:01.436Z,100095.22
2022-12-23T05:06:28.339Z,100125.03
2022-12-23T05:08:55.240Z,100130.31
2022-12-23T05:11:22.227Z,100125.94
2022-12-23T05:13:49.074Z,100128.56
2022-12-23T05:16:15.987Z,100135.56
2022-12-23T05:18:42.916Z,100138.19
2022-12-23T05:21:09.861Z,100132.06
2022-12-23T05:23:36.839Z,100134.69
2022-12-23T05:26:03.917Z,100136.44
2022-12-23T05:28:31.279Z,100143.41
2022-12-23T05:31:03.786Z,100134.63
2022-12-23T05:33:31.401Z,100138.13
2022-12-23T05:35:58.778Z,100133.75
2022-12-23T05:38:26.375Z,100132.03
2022-12-23T05:40:53.329Z,100140.72
2022-12-23T05:43:20.811Z,100138.09
2022-12-23T05:45:48.909Z,100138.97
2022-12-23T05:48:16.120Z,100147.75
2022-12-23T05:50:43.121Z,100147.72
2022-12-23T05:53:10.202Z,100154.72
2022-12-23T05:55:37.095Z,100159.94
2022-12-23T05:58:03.986Z,100159.03
2022-12-23T06:00:30.954Z,100153.81
2022-12-23T06:02:58.018Z,100152.91
2022-12-23T06:05:25.086Z,100150.28
2022-12-23T06:07:52.590Z,100155.53
2022-12-23T06:10:19.983Z,100150.28
2022-12-23T06:12:46.867Z,100144.19
2022-12-23T06:15:13.776Z,100134.56
2022-12-23T06:17:40.627Z,100145.94
2022-12-23T06:20:16.283Z,100148.56
2022-12-23T06:22:47.065Z,100152.94
2022-12-23T06:25:14.070Z,100150.31
2022-12-23T06:27:41.070Z,100141.56
2022-12-23T06:30:10.334Z,100151.16
2022-12-23T06:32:38.971Z,100143.28
2022-12-23T06:35:07.696Z,100150.28
2022-12-23T06:37:35.168Z,100152.91
2022-12-23T06:40:04.831Z,100151.19
2022-12-23T06:42:31.811Z,100144.19
2022-12-23T06:44:58.705Z,100136.31
2022-12-23T06:47:25.531Z,100146.78
2022-12-23T06:49:53.182Z,100163.38
2022-12-23T06:52:20.202Z,100157.28
2022-12-23T06:54:47.139Z,100165.16
2022-12-23T06:57:13.984Z,100162.53
2022-12-23T06:59:43.383Z,100168.66
2022-12-23T07:02:12.176Z,100168.63
2022-12-23T07:04:39.334Z,100172.16
2022-12-23T07:07:06.259Z,100175.66
2022-12-23T07:09:33.639Z,100175.66
2022-12-23T07:12:02.815Z,100171.28
2022-12-23T07:14:29.780Z,100162.50
2022-12-23T07:16:56.662Z,100161.66
2022-12-23T07:19:24.457Z,100176.56
2022-12-23T07:21:51.528Z,100181.78
2022-12-23T07:24:18.480Z,100173.94
2022-12-23T07:26:45.473Z,100173.97
2022-12-23T07:29:12.424Z,100188.84
2022-12-23T07:31:41.049Z,100186.19
2022-12-23T07:34:08.783Z,100180.03
2022-12-23T07:36:35.729Z,100183.53
2022-12-23T07:39:02.627Z,100180.03
2022-12-23T07:41:29.602Z,100180.91
2022-12-23T07:43:56.535Z,100185.28
2022-12-23T07:46:23.397Z,100204.53
2022-12-23T07:48:50.368Z,100204.50
2022-12-23T07:51:17.471Z,100190.53
2022-12-23T07:53:49.045Z,100184.44
2022-12-23T07:56:16.154Z,100169.56
2022-12-23T07:58:52.394Z,100169.56
2022-12-23T08:01:20.310Z,100171.34
2022-12-23T08:03:47.824Z,100177.47
2022-12-23T08:06:16.429Z,100179.13
2022-12-23T08:08:45.620Z,100167.72
2022-12-23T08:11:14.523Z,100168.66
2022-12-23T08:13:43.421Z,100156.47
2022-12-23T08:16:11.026Z,100144.22
2022-12-23T08:18:40.703Z,100155.59
2022-12-23T08:21:12.949Z,100143.34
2022-12-23T08:23:39.811Z,100142.47
2022-12-23T08:26:10.214Z,100159.06
2022-12-23T08:28:39.068Z,100150.31
2022-12-23T08:31:21.128Z,100159.97
2022-12-23T08:33:52.041Z,100159.09
2022-12-23T08:36:23.351Z,100148.59
2022-12-23T08:38:55.399Z,100139.81
2022-12-23T08:41:25.171Z,100110.97
2022-12-23T08:43:52.781Z,100109.25
2022-12-23T08:46:20.174Z,100139.88
2022-12-23T08:48:49.720Z,100157.34
2022-12-23T08:51:19.694Z,100159.06
2022-12-23T08:53:47.688Z,100151.16
2022-12-23T08:56:20.434Z,100147.66
2022-12-23T08:58:49.788Z,100123.22
2022-12-23T09:01:18.822Z,100114.50
2022-12-23T09:03:46.402Z,100112.69
2022-12-23T09:06:16.675Z,100104.87
2022-12-23T09:08:44.286Z,100101.44
2022-12-23T09:11:20.147Z,100103.19
2022-12-23T09:13:47.119Z,100107.63
2022-12-23T09:16:14.372Z,100106.72
2022-12-23T09:18:42.051Z,100113.72
2022-12-23T09:21:19.917Z,100122.41
2022-12-23T09:23:47.338Z,100147.62
2022-12-23T09:26:22.460Z,100142.44
2022-12-23T09:28:49.735Z,100141.50
2022-12-23T09:31:17.203Z,100141.50
2022-12-23T09:33:47.020Z,100135.41
2022-12-23T09:36:14.007Z,100137.12
2022-12-23T09:38:40.984Z,100134.47
2022-12-23T09:41:17.902Z,100131.87
2022-12-23T09:43:59.967Z,100120.62
2022-12-23T09:46:30.635Z,100114.50
2022-12-23T09:49:11.194Z,100111.91
2022-12-23T09:51:38.521Z,100093.47
2022-12-23T09:54:17.429Z,100092.63
2022-12-23T09:57:02.476Z,100098.72
2022-12-23T09:59:51.112Z,100100.50
2022-12-23T10:02:42.353Z,100098.72
2022-12-23T10:05:24.339Z,100092.63
2022-12-23T10:07:59.047Z,100085.66
2022-12-23T10:10:31.904Z,100068.19
2022-12-23T10:13:02.031Z,100074.22
2022-12-23T10:15:37.477Z,100056.81
2022-12-23T10:18:26.831Z,100061.13
2022-12-23T10:21:03.868Z,100067.25
2022-12-23T10:23:37.286Z,100063.75
2022-12-23T10:26:14.478Z,100070.72
2022-12-23T10:28:41.543Z,100052.34
2022-12-23T10:34:22.745Z,100049.81
2022-12-23T10:37:07.002Z,100053.34
2022-12-23T10:39:41.109Z,100046.34
2022-12-23T10:42:20.440Z,100042.00
2022-12-23T10:44:54.128Z,100056.84
2022-12-23T10:47:42.665Z,100041.97
2022-12-23T10:50:52.497Z,100045.50
2022-12-23T10:53:45.955Z,100048.97
2022-12-23T10:56:13.709Z,100053.38
2022-12-23T10:58:46.754Z,100041.16
2022-12-23T11:01:26.221Z,100028.03
2022-12-23T11:04:19.330Z,100023.66
2022-12-23T11:07:18.288Z,100035.03
2022-12-23T11:09:51.202Z,100036.78
2022-12-23T11:12:23.590Z,100040.28
2022-12-23T11:14:57.809Z,100050.78
2022-12-23T11:17:29.995Z,100053.44
2022-12-23T11:20:13.174Z,100056.94
2022-12-23T11:22:49.408Z,100040.34
2022-12-23T11:25:36.137Z,100049.12
2022-12-23T11:28:06.189Z,100049.09
2022-12-23T11:30:38.669Z,100054.34
2022-12-23T11:33:06.690Z,100041.19
2022-12-23T11:35:36.971Z,100041.22
2022-12-23T11:38:04.394Z,100043.81
2022-12-23T11:40:38.203Z,100044.72
2022-12-23T11:43:11.973Z,100047.34
2022-12-23T11:45:39.162Z,100046.47
2022-12-23T11:48:25.773Z,100043.84
2022-12-23T11:51:01.270Z,100032.50
2022-12-23T11:53:28.912Z,100042.12
2022-12-23T11:56:10.698Z,100041.28
2022-12-23T11:58:53.307Z,100038.66
2022-12-23T12:01:24.233Z,100054.44
2022-12-23T12:04:02.792Z,100050.13
2022-12-23T12:06:31.527Z,100050.13
2022-12-23T12:09:00.145Z,100040.50
2022-12-23T12:11:37.972Z,100043.97
2022-12-23T12:14:07.502Z,100043.13
2022-12-23T12:16:53.046Z,100039.63
2022-12-23T12:19:28.807Z,100044.88
2022-12-23T12:22:02.185Z,100036.13
2022-12-23T12:24:31.086Z,100038.75
2022-12-23T12:27:03.527Z,100044.00
2022-12-23T12:29:57.331Z,100037.88
2022-12-23T12:32:48.887Z,100047.50
2022-12-23T12:35:25.744Z,100055.34
2022-12-23T12:37:59.524Z,100043.13
2022-12-23T12:40:38.832Z,100056.25
2022-12-23T12:43:21.069Z,100045.75
2022-12-23T12:45:53.135Z,100053.63
2022-12-23T12:48:32.028Z,100040.53
2022-12-23T12:51:05.751Z,100054.50
2022-12-23T12:53:33.812Z,100054.50
2022-12-23T12:56:11.002Z,100050.13
2022-12-23T12:58:40.270Z,100041.38
2022-12-23T13:01:17.366Z,100044.91
2022-12-23T13:04:04.433Z,100049.28
2022-12-23T13:06:44.780Z,100045.78
2022-12-23T13:09:36.344Z,100050.16
2022-12-23T13:12:15.025Z,100046.63
2022-12-23T13:14:56.492Z,100045.78
2022-12-23T13:17:28.838Z,100058.03
2022-12-23T13:20:11.054Z,100067.66
2022-12-23T13:22:39.985Z,100072.03
2022-12-23T13:25:40.389Z,100066.78
2022-12-23T13:28:16.875Z,100069.38
2022-12-23T13:30:54.404Z,100072.03
2022-12-23T13:33:44.875Z,100074.63
2022-12-23T13:36:35.527Z,100072.00
2022-12-23T13:39:23.219Z,100066.75
2022-12-23T13:41:57.398Z,100066.75
2022-12-23T13:44:30.359Z,100058.88
2022-12-23T13:47:22.630Z,100058.03
2022-12-23T13:50:05.883Z,100052.78
2022-12-23T13:52:50.972Z,100060.66
2022-12-23T13:55:56.602Z,100057.13
2022-12-23T13:58:28.395Z,100060.66
2022-12-23T14:01:10.750Z,100069.44
2022-12-23T14:03:39.132Z,100062.44
2022-12-23T14:06:24.227Z,100056.28
2022-12-23T14:08:52.700Z,100067.66
2022-12-23T14:11:28.523Z,100069.41
2022-12-23T14:14:15.011Z,100066.78
2022-12-23T14:16:51.130Z,100058.03
2022-12-23T14:19:42.628Z,100046.69
2022-12-23T14:22:34.613Z,100041.41
2022-12-23T14:25:32.116Z,100064.19
2022-12-23T14:28:28.111Z,100049.31
2022-12-23T14:30:56.265Z,100056.31
2022-12-23T14:33:29.199Z,100074.69
2022-12-23T14:36:25.492Z,100086.06
2022-12-23T14:39:28.997Z,100080.81
2022-12-23T14:42:01.728Z,100078.19
2022-12-23T14:44:38.098Z,100094.81
2022-12-23T14:47:40.553Z,100100.91
2022-12-23T14:50:32.739Z,100090.41
2022-12-23T14:53:27.039Z,100075.53
2022-12-23T14:56:23.016Z,100078.16
2022-12-23T15:02:29.458Z,100080.91
2022-12-23T15:04:58.684Z,100080.91
2022-12-23T15:07:38.772Z,100083.41
2022-12-23T15:10:14.667Z,100083.41
2022-12-23T15:12:46.721Z,100084.25
2022-12-23T15:15:20.067Z,100084.28
2022-12-23T15:17:47.529Z,100083.41
2022-12-23T15:20:21.345Z,100096.53
2022-12-23T15:22:49.356Z,100101.75
2022-12-23T15:25:19.045Z,100114.87
2022-12-23T15:27:46.357Z,100116.62
2022-12-23T15:30:15.693Z,100115.75
2022-12-23T15:32:50.785Z,100115.75
2022-12-23T15:35:29.250Z,100105.25
2022-12-23T15:37:57.414Z,100106.13
2022-12-23T15:40:30.587Z,100111.34
2022-12-23T15:42:58.250Z,100104.38
2022-12-23T15:45:42.378Z,100110.53
2022-12-23T15:48:26.255Z,100122.72
2022-12-23T15:51:14.771Z,100111.34
2022-12-23T15:53:45.753Z,100102.63
2022-12-23T15:56:25.983Z,100103.50
2022-12-23T15:58:54.653Z,100104.38
2022-12-23T16:01:25.464Z,100103.53
2022-12-23T16:03:58.480Z,100102.66
2022-12-23T16:06:29.756Z,100091.28
2022-12-23T16:09:22.868Z,100092.16
2022-12-23T16:12:20.338Z,100083.41
2022-12-23T16:15:00.619Z,100078.16
2022-12-23T16:17:37.286Z,100072.91
2022-12-23T16:20:26.399Z,100080.75
2022-12-23T16:22:56.632Z,100086.88
2022-12-23T16:25:31.728Z,100090.34
2022-12-23T16:28:12.992Z,100100.88
2022-12-23T16:30:42.792Z,100097.34
2022-12-23T16:33:27.966Z,100083.34
2022-12-23T16:35:56.000Z,100076.38
2022-12-23T16:38:27.952Z,100070.25
2022-12-23T16:40:56.733Z,100082.50
2022-12-23T16:43:25.228Z,100074.59
2022-12-23T16:45:55.229Z,100082.47
2022-12-23T16:48:26.674Z,100092.09
2022-12-23T16:50:53.979Z,100083.34
2022-12-23T16:53:21.353Z,100088.59
2022-12-23T16:55:55.341Z,100095.56
2022-12-23T16:58:27.076Z,100069.38
2022-12-23T17:00:54.131Z,100071.13
2022-12-23T17:03:21.437Z,100083.34
2022-12-23T17:05:48.784Z,100079.00
2022-12-23T17:08:15.820Z,100077.25
2022-12-23T17:10:47.018Z,100082.50
2022-12-23T17:13:17.819Z,100085.09
2022-12-23T17:15:45.298Z,100087.72
2022-12-23T17:18:18.770Z,100078.97
2022-12-23T17:20:47.976Z,100087.72
2022-12-23T17:23:31.156Z,100089.47
2022-12-23T17:25:58.855Z,100093.88
2022-12-23T17:28:31.424Z,100090.31
2022-12-23T17:30:59.000Z,100091.22
2022-12-23T17:33:29.547Z,100085.09
2022-12-23T17:35:56.729Z,100073.75
2022-12-23T17:38:23.819Z,100071.13
2022-12-23T17:40:51.336Z,100065.88
2022-12-23T17:43:19.040Z,100054.50
2022-12-23T17:45:46.054Z,100060.59
2022-12-23T17:48:20.578Z,100060.59
2022-12-23T17:50:51.814Z,100057.97
2022-12-23T17:53:19.706Z,100059.75
2022-12-23T17:55:46.946Z,100064.13
2022-12-23T17:58:14.376Z,100075.44
2022-12-23T18:00:41.800Z,100076.31
2022-12-23T18:03:22.621Z,100098.22
2022-12-23T18:05:52.970Z,100102.56
2022-12-23T18:08:24.256Z,100102.59
2022-12-23T18:10:51.235Z,100096.47
2022-12-23T18:13:20.264Z,100094.72
2022-12-23T18:15:47.859Z,100089.47
2022-12-23T18:18:26.408Z,100076.34
2022-12-23T18:20:58.438Z,100072.88
2022-12-23T18:23:28.647Z,100069.38
2022-12-23T18:25:56.901Z,100070.25
2022-12-23T18:28:27.077Z,100060.63
2022-12-23T18:30:56.860Z,100061.47
2022-12-23T18:33:28.622Z,100053.59
2022-12-23T18:35:56.177Z,100064.97
2022-12-23T18:38:23.246Z,100060.56
2022-12-23T18:40:53.937Z,100087.66
2022-12-23T18:43:24.158Z,100081.56
2022-12-23T18:45:53.523Z,100087.66
2022-12-23T18:48:21.502Z,100094.66
2022-12-23T18:50:49.030Z,100093.78
2022-12-23T18:53:25.301Z,100081.56
2022-12-23T18:55:53.830Z,100085.91
2022-12-23T18:58:21.497Z,100096.41
2022-12-23T19:00:49.311Z,100090.28
2022-12-23T19:03:25.043Z,100091.16
2022-12-23T19:05:53.954Z,100085.91
2022-12-23T19:08:26.817Z,100085.91
2022-12-23T19:10:56.036Z,100078.91
2022-12-23T19:13:23.773Z,100085.91
2022-12-23T19:15:50.785Z,100088.53
2022-12-23T19:18:20.515Z,100093.75
2022-12-23T19:20:48.826Z,100082.38
2022-12-23T19:23:16.151Z,100091.16
2022-12-23T19:25:50.772Z,100092.03
2022-12-23T19:28:21.874Z,100096.41
2022-12-23T19:30:49.281Z,100082.34
2022-12-23T19:33:16.363Z,100077.09
2022-12-23T19:35:44.176Z,100085.00
2022-12-23T19:38:12.468Z,100089.38
2022-12-23T19:40:40.724Z,100085.03
2022-12-23T19:43:07.788Z,100103.34
2022-12-23T19:45:34.712Z,100092.84
2022-12-23T19:48:01.752Z,100098.94
2022-12-23T19:50:29.202Z,100110.28
2022-12-23T19:52:56.592Z,100097.13
2022-12-23T19:55:24.090Z,100105.91
2022-12-23T19:57:52.321Z,100126.00
2022-12-23T20:00:19.597Z,100121.63
2022-12-23T20:02:46.815Z,100129.50
2022-12-23T20:05:14.321Z,100127.78
2022-12-23T20:07:41.559Z,100125.13
2022-12-23T20:10:12.100Z,100115.50
2022-12-23T20:12:39.981Z,100114.66
2022-12-23T20:15:08.130Z,100112.94
2022-12-23T20:17:35.128Z,100108.53
2022-12-23T20:20:02.328Z,100103.31
2022-12-23T20:22:29.267Z,100099.81
2022-12-23T20:24:56.539Z,100097.22
2022-12-23T20:27:27.804Z,100107.72
2022-12-23T20:29:55.557Z,100123.44
2022-12-23T20:32:22.579Z,100133.03
2022-12-23T20:34:50.279Z,100124.31
2022-12-23T20:37:17.727Z,100117.31
2022-12-23T20:39:47.518Z,100120.84
2022-12-23T20:42:14.679Z,100120.84
2022-12-23T20:44:41.615Z,100120.81
2022-12-23T20:47:08.676Z,100111.22
2022-12-23T20:49:35.819Z,100114.75
2022-12-23T20:52:02.909Z,100102.47
2022-12-23T20:54:33.716Z,100093.72
2022-12-23T20:57:04.132Z,100103.34
2022-12-23T20:59:31.199Z,100114.69
2022-12-23T21:01:59.489Z,100103.34
2022-12-23T21:04:26.880Z,100102.41
2022-12-23T21:06:53.857Z,100100.69
2022-12-23T21:09:20.644Z,100094.59
2022-12-23T21:11:48.123Z,100081.47
2022-12-23T21:14:15.749Z,100089.34
2022-12-23T21:16:43.033Z,100084.09
2022-12-23T21:19:15.910Z,100084.97
2022-12-23T21:21:42.753Z,100086.69
2022-12-23T21:24:10.651Z,100068.34
2022-12-23T21:26:37.671Z,100056.97
2022-12-23T21:29:07.000Z,100063.13
2022-12-23T21:31:36.891Z,100064.84
2022-12-23T21:34:05.060Z,100061.34
2022-12-23T21:36:34.561Z,100059.56
2022-12-23T21:39:01.707Z,100054.34
2022-12-23T21:41:30.742Z,100053.47
2022-12-23T21:43:58.849Z,100043.00
2022-12-23T21:46:27.327Z,100034.28
2022-12-23T21:48:56.269Z,100026.38
2022-12-23T21:51:39.122Z,100040.37
2022-12-23T21:54:08.257Z,100038.62
2022-12-23T21:56:35.834Z,100035.12
2022-12-23T21:59:06.013Z,100022.91
2022-12-23T22:01:33.608Z,100030.78
2022-12-23T22:04:00.602Z,100029.03
2022-12-23T22:06:30.841Z,100018.53
2022-12-23T22:08:58.676Z,100010.66
2022-12-23T22:11:28.265Z,99995.81
2022-12-23T22:14:00.371Z,99987.94
2022-12-23T22:16:28.652Z,99987.94
2022-12-23T22:18:57.097Z,99991.41
2022-12-23T22:21:26.279Z,99987.09
2022-12-23T22:23:54.254Z,99978.34
2022-12-23T22:26:25.652Z,99967.84
2022-12-23T22:28:55.498Z,99957.34
2022-12-23T22:31:40.344Z,99958.19
2022-12-23T22:34:09.119Z,99958.19
2022-12-23T22:36:36.491Z,99965.19
2022-12-23T22:39:04.945Z,99965.22
2022-12-23T22:41:32.369Z,99961.72
2022-12-23T22:43:59.849Z,99959.06
2022-12-23T22:46:27.967Z,99945.97
2022-12-23T22:48:55.269Z,99940.72
2022-12-23T22:51:25.239Z,99927.63
2022-12-23T22:53:52.665Z,99926.75
2022-12-23T22:56:20.795Z,99930.25
2022-12-23T22:58:48.417Z,99921.50
2022-12-23T23:01:30.512Z,99928.50
2022-12-23T23:04:00.491Z,99936.34
2022-12-23T23:06:33.618Z,99933.72
2022-12-23T23:09:01.374Z,99926.72
2022-12-23T23:11:29.101Z,99934.59
2022-12-23T23:13:56.488Z,99929.38
2022-12-23T23:16:24.779Z,99925.00
2022-12-23T23:18:52.782Z,99927.63
2022-12-23T23:21:20.421Z,99937.25
2022-12-23T23:23:47.800Z,99945.09
2022-12-23T23:26:14.961Z,99965.19
2022-12-23T23:28:43.047Z,99969.56
2022-12-23T23:33:58.444Z,99980.03
2022-12-23T23:36:25.664Z,99975.66
2022-12-23T23:38:52.649Z,99973.03
2022-12-23T23:41:23.421Z,99966.97
2022-12-23T23:43:51.504Z,99969.56
2022-12-23T23:46:18.992Z,99970.44
2022-12-23T23:48:46.116Z,99971.34
2022-12-23T23:51:13.069Z,99956.47
2022-12-23T23:53:40.784Z,99952.97
2022-12-23T23:56:09.008Z,99940.72
2022-12-23T23:58:36.640Z,99925.87
